sensor_id;sensor_type;location;lat;lon;timestamp;P1;durP1;ratioP1;P2;durP2;ratioP2
50309;SDS011;36207;51.850;21.698;2022-09-13T00:02:07;13.70;;;8.70;;
50309;SDS011;36207;51.850;21.698;2022-09-13T00:04:33;13.90;;;7.90;;
50309;SDS011;36207;51.850;21.698;2022-09-13T00:06:59;14.60;;;8.40;;
50309;SDS011;36207;51.850;21.698;2022-09-13T00:09:26;11.20;;;8.00;;
50309;SDS011;36207;51.850;21.698;2022-09-13T00:11:52;10.50;;;6.40;;
50309;SDS011;36207;51.850;21.698;2022-09-13T00:14:18;11.20;;;7.20;;
50309;SDS011;36207;51.850;21.698;2022-09-13T00:16:44;11.10;;;7.50;;
50309;SDS011;36207;51.850;21.698;2022-09-13T00:19:10;13.90;;;8.30;;
50309;SDS011;36207;51.850;21.698;2022-09-13T00:21:36;12.90;;;8.60;;
50309;SDS011;36207;51.850;21.698;2022-09-13T00:24:03;12.50;;;8.60;;
50309;SDS011;36207;51.850;21.698;2022-09-13T00:26:29;13.60;;;9.10;;
50309;SDS011;36207;51.850;21.698;2022-09-13T00:28:56;85.60;;;10.30;;
50309;SDS011;36207;51.850;21.698;2022-09-13T00:31:24;12.60;;;9.00;;
50309;SDS011;36207;51.850;21.698;2022-09-13T00:33:52;12.80;;;8.90;;
50309;SDS011;36207;51.850;21.698;2022-09-13T00:36:19;12.70;;;8.80;;
50309;SDS011;36207;51.850;21.698;2022-09-13T00:38:45;11.90;;;8.20;;
50309;SDS011;36207;51.850;21.698;2022-09-13T00:41:13;11.40;;;8.20;;
50309;SDS011;36207;51.850;21.698;2022-09-13T00:43:51;11.50;;;7.80;;
50309;SDS011;36207;51.850;21.698;2022-09-13T00:49:16;12.60;;;9.10;;
50309;SDS011;36207;51.850;21.698;2022-09-13T00:51:55;16.40;;;8.20;;
50309;SDS011;36207;51.850;21.698;2022-09-13T00:54:26;12.70;;;8.50;;
50309;SDS011;36207;51.850;21.698;2022-09-13T00:56:57;12.60;;;8.50;;
50309;SDS011;36207;51.850;21.698;2022-09-13T00:59:30;11.70;;;8.20;;
50309;SDS011;36207;51.850;21.698;2022-09-13T01:02:02;14.00;;;8.30;;
50309;SDS011;36207;51.850;21.698;2022-09-13T01:04:29;11.90;;;7.80;;
50309;SDS011;36207;51.850;21.698;2022-09-13T01:07:09;12.50;;;8.10;;
50309;SDS011;36207;51.850;21.698;2022-09-13T01:09:40;17.90;;;8.10;;
50309;SDS011;36207;51.850;21.698;2022-09-13T01:12:13;15.30;;;8.60;;
50309;SDS011;36207;51.850;21.698;2022-09-13T01:14:51;11.80;;;7.90;;
50309;SDS011;36207;51.850;21.698;2022-09-13T01:17:18;12.40;;;8.10;;
50309;SDS011;36207;51.850;21.698;2022-09-13T01:19:44;12.20;;;8.00;;
50309;SDS011;36207;51.850;21.698;2022-09-13T01:22:27;12.30;;;7.80;;
50309;SDS011;36207;51.850;21.698;2022-09-13T01:25:24;11.60;;;7.50;;
50309;SDS011;36207;51.850;21.698;2022-09-13T01:34:08;10.50;;;7.40;;
50309;SDS011;36207;51.850;21.698;2022-09-13T01:47:52;10.40;;;7.20;;
50309;SDS011;36207;51.850;21.698;2022-09-13T01:53:36;10.70;;;7.20;;
50309;SDS011;36207;51.850;21.698;2022-09-13T01:56:19;9.80;;;7.70;;
50309;SDS011;36207;51.850;21.698;2022-09-13T01:58:53;11.40;;;7.10;;
50309;SDS011;36207;51.850;21.698;2022-09-13T02:01:34;11.30;;;6.70;;
50309;SDS011;36207;51.850;21.698;2022-09-13T02:04:16;10.40;;;6.80;;
50309;SDS011;36207;51.850;21.698;2022-09-13T02:07:01;11.10;;;7.10;;
50309;SDS011;36207;51.850;21.698;2022-09-13T02:09:51;10.40;;;7.20;;
50309;SDS011;36207;51.850;21.698;2022-09-13T02:12:23;9.40;;;6.70;;
50309;SDS011;36207;51.850;21.698;2022-09-13T02:15:03;9.70;;;7.00;;
50309;SDS011;36207;51.850;21.698;2022-09-13T02:17:36;8.80;;;6.00;;
50309;SDS011;36207;51.850;21.698;2022-09-13T02:20:12;8.30;;;6.20;;
50309;SDS011;36207;51.850;21.698;2022-09-13T02:22:47;9.10;;;6.60;;
50309;SDS011;36207;51.850;21.698;2022-09-13T02:25:19;10.00;;;6.80;;
50309;SDS011;36207;51.850;21.698;2022-09-13T02:27:50;9.00;;;6.30;;
50309;SDS011;36207;51.850;21.698;2022-09-13T02:30:23;10.50;;;6.90;;
50309;SDS011;36207;51.850;21.698;2022-09-13T02:32:55;8.80;;;6.30;;
50309;SDS011;36207;51.850;21.698;2022-09-13T02:35:35;11.30;;;6.50;;
50309;SDS011;36207;51.850;21.698;2022-09-13T02:38:11;13.20;;;6.30;;
50309;SDS011;36207;51.850;21.698;2022-09-13T02:40:47;9.30;;;6.30;;
50309;SDS011;36207;51.850;21.698;2022-09-13T02:43:40;13.30;;;6.60;;
50309;SDS011;36207;51.850;21.698;2022-09-13T02:49:20;10.40;;;7.00;;
50309;SDS011;36207;51.850;21.698;2022-09-13T02:51:55;10.80;;;6.90;;
50309;SDS011;36207;51.850;21.698;2022-09-13T02:54:43;8.70;;;6.30;;
50309;SDS011;36207;51.850;21.698;2022-09-13T03:00:39;20.90;;;11.20;;
50309;SDS011;36207;51.850;21.698;2022-09-13T03:03:07;18.00;;;9.00;;
50309;SDS011;36207;51.850;21.698;2022-09-13T03:05:36;13.90;;;8.90;;
50309;SDS011;36207;51.850;21.698;2022-09-13T03:08:03;15.40;;;9.30;;
50309;SDS011;36207;51.850;21.698;2022-09-13T03:10:36;13.70;;;8.80;;
50309;SDS011;36207;51.850;21.698;2022-09-13T03:18:48;12.80;;;7.90;;
50309;SDS011;36207;51.850;21.698;2022-09-13T03:24:27;18.50;;;10.20;;
50309;SDS011;36207;51.850;21.698;2022-09-13T03:27:17;21.20;;;11.40;;
50309;SDS011;36207;51.850;21.698;2022-09-13T03:30:07;25.30;;;13.90;;
50309;SDS011;36207;51.850;21.698;2022-09-13T03:32:40;32.20;;;14.90;;
50309;SDS011;36207;51.850;21.698;2022-09-13T03:35:25;30.30;;;16.30;;
50309;SDS011;36207;51.850;21.698;2022-09-13T03:40:59;28.50;;;13.10;;
50309;SDS011;36207;51.850;21.698;2022-09-13T03:43:30;23.70;;;12.60;;
50309;SDS011;36207;51.850;21.698;2022-09-13T03:46:02;22.00;;;11.30;;
50309;SDS011;36207;51.850;21.698;2022-09-13T03:48:47;19.50;;;10.20;;
50309;SDS011;36207;51.850;21.698;2022-09-13T03:51:14;14.80;;;8.60;;
50309;SDS011;36207;51.850;21.698;2022-09-13T03:53:46;11.90;;;6.20;;
50309;SDS011;36207;51.850;21.698;2022-09-13T03:56:19;10.40;;;6.20;;
50309;SDS011;36207;51.850;21.698;2022-09-13T03:58:45;9.00;;;5.90;;
50309;SDS011;36207;51.850;21.698;2022-09-13T04:01:13;32.90;;;6.40;;
50309;SDS011;36207;51.850;21.698;2022-09-13T04:03:43;11.10;;;5.90;;
50309;SDS011;36207;51.850;21.698;2022-09-13T04:06:09;21.00;;;5.60;;
50309;SDS011;36207;51.850;21.698;2022-09-13T04:08:36;8.40;;;6.00;;
50309;SDS011;36207;51.850;21.698;2022-09-13T04:11:02;9.40;;;5.90;;
50309;SDS011;36207;51.850;21.698;2022-09-13T04:13:28;8.70;;;5.50;;
50309;SDS011;36207;51.850;21.698;2022-09-13T04:15:54;8.20;;;5.50;;
50309;SDS011;36207;51.850;21.698;2022-09-13T04:18:20;9.00;;;6.10;;
50309;SDS011;36207;51.850;21.698;2022-09-13T04:20:56;10.30;;;6.20;;
50309;SDS011;36207;51.850;21.698;2022-09-13T04:23:24;9.40;;;6.70;;
50309;SDS011;36207;51.850;21.698;2022-09-13T04:25:52;11.60;;;6.70;;
50309;SDS011;36207;51.850;21.698;2022-09-13T04:28:19;8.00;;;6.10;;
50309;SDS011;36207;51.850;21.698;2022-09-13T04:30:47;9.10;;;6.30;;
50309;SDS011;36207;51.850;21.698;2022-09-13T04:33:14;9.30;;;6.30;;
50309;SDS011;36207;51.850;21.698;2022-09-13T04:35:44;8.50;;;6.50;;
50309;SDS011;36207;51.850;21.698;2022-09-13T04:38:10;9.60;;;6.50;;
50309;SDS011;36207;51.850;21.698;2022-09-13T04:40:36;11.60;;;6.80;;
50309;SDS011;36207;51.850;21.698;2022-09-13T04:43:05;8.00;;;6.30;;
50309;SDS011;36207;51.850;21.698;2022-09-13T04:45:31;8.60;;;5.80;;
50309;SDS011;36207;51.850;21.698;2022-09-13T04:47:57;9.30;;;6.10;;
50309;SDS011;36207;51.850;21.698;2022-09-13T04:50:24;11.20;;;6.30;;
50309;SDS011;36207;51.850;21.698;2022-09-13T04:52:50;12.10;;;6.60;;
50309;SDS011;36207;51.850;21.698;2022-09-13T04:55:20;10.70;;;6.50;;
50309;SDS011;36207;51.850;21.698;2022-09-13T04:57:46;8.70;;;6.40;;
50309;SDS011;36207;51.850;21.698;2022-09-13T05:00:12;9.20;;;6.30;;
50309;SDS011;36207;51.850;21.698;2022-09-13T05:02:38;8.20;;;5.90;;
50309;SDS011;36207;51.850;21.698;2022-09-13T05:05:04;9.40;;;6.20;;
50309;SDS011;36207;51.850;21.698;2022-09-13T05:07:31;8.30;;;6.30;;
50309;SDS011;36207;51.850;21.698;2022-09-13T05:09:57;8.90;;;6.70;;
50309;SDS011;36207;51.850;21.698;2022-09-13T05:12:23;16.20;;;6.80;;
50309;SDS011;36207;51.850;21.698;2022-09-13T05:14:49;8.60;;;6.50;;
50309;SDS011;36207;51.850;21.698;2022-09-13T05:17:15;9.30;;;6.40;;
50309;SDS011;36207;51.850;21.698;2022-09-13T05:19:41;10.20;;;6.70;;
50309;SDS011;36207;51.850;21.698;2022-09-13T05:22:07;10.50;;;7.00;;
50309;SDS011;36207;51.850;21.698;2022-09-13T05:24:34;8.80;;;6.50;;
50309;SDS011;36207;51.850;21.698;2022-09-13T05:27:00;11.10;;;7.40;;
50309;SDS011;36207;51.850;21.698;2022-09-13T05:29:26;9.40;;;6.60;;
50309;SDS011;36207;51.850;21.698;2022-09-13T05:31:53;9.60;;;7.00;;
50309;SDS011;36207;51.850;21.698;2022-09-13T05:34:19;10.30;;;7.50;;
50309;SDS011;36207;51.850;21.698;2022-09-13T05:36:45;10.80;;;7.40;;
50309;SDS011;36207;51.850;21.698;2022-09-13T05:39:12;11.50;;;7.70;;
50309;SDS011;36207;51.850;21.698;2022-09-13T05:41:40;11.80;;;8.50;;
50309;SDS011;36207;51.850;21.698;2022-09-13T05:44:10;9.80;;;7.40;;
50309;SDS011;36207;51.850;21.698;2022-09-13T05:46:36;11.50;;;8.20;;
50309;SDS011;36207;51.850;21.698;2022-09-13T05:49:02;11.30;;;8.30;;
50309;SDS011;36207;51.850;21.698;2022-09-13T05:51:28;14.60;;;8.40;;
50309;SDS011;36207;51.850;21.698;2022-09-13T05:53:54;12.40;;;8.50;;
50309;SDS011;36207;51.850;21.698;2022-09-13T05:56:23;10.90;;;8.40;;
50309;SDS011;36207;51.850;21.698;2022-09-13T05:58:52;10.80;;;7.90;;
50309;SDS011;36207;51.850;21.698;2022-09-13T06:01:21;11.40;;;8.20;;
50309;SDS011;36207;51.850;21.698;2022-09-13T06:03:49;10.80;;;8.10;;
50309;SDS011;36207;51.850;21.698;2022-09-13T06:06:20;11.00;;;8.50;;
50309;SDS011;36207;51.850;21.698;2022-09-13T06:08:50;12.60;;;8.90;;
50309;SDS011;36207;51.850;21.698;2022-09-13T06:11:18;10.60;;;8.20;;
50309;SDS011;36207;51.850;21.698;2022-09-13T06:13:44;10.90;;;8.30;;
50309;SDS011;36207;51.850;21.698;2022-09-13T06:16:11;12.80;;;8.90;;
50309;SDS011;36207;51.850;21.698;2022-09-13T06:18:38;11.60;;;8.80;;
50309;SDS011;36207;51.850;21.698;2022-09-13T06:21:06;11.70;;;8.90;;
50309;SDS011;36207;51.850;21.698;2022-09-13T06:23:37;13.70;;;8.10;;
50309;SDS011;36207;51.850;21.698;2022-09-13T06:26:05;10.50;;;8.00;;
50309;SDS011;36207;51.850;21.698;2022-09-13T06:28:31;10.30;;;8.40;;
50309;SDS011;36207;51.850;21.698;2022-09-13T06:31:02;13.40;;;8.80;;
50309;SDS011;36207;51.850;21.698;2022-09-13T06:33:29;14.20;;;7.60;;
50309;SDS011;36207;51.850;21.698;2022-09-13T06:35:58;9.20;;;7.10;;
50309;SDS011;36207;51.850;21.698;2022-09-13T06:38:25;8.90;;;6.70;;
50309;SDS011;36207;51.850;21.698;2022-09-13T06:40:58;9.20;;;6.20;;
50309;SDS011;36207;51.850;21.698;2022-09-13T06:43:29;10.10;;;5.80;;
50309;SDS011;36207;51.850;21.698;2022-09-13T06:46:03;9.10;;;5.80;;
50309;SDS011;36207;51.850;21.698;2022-09-13T06:48:35;9.10;;;6.40;;
50309;SDS011;36207;51.850;21.698;2022-09-13T06:51:04;9.20;;;6.70;;
50309;SDS011;36207;51.850;21.698;2022-09-13T06:53:32;9.00;;;6.70;;
50309;SDS011;36207;51.850;21.698;2022-09-13T06:56:05;10.20;;;7.20;;
50309;SDS011;36207;51.850;21.698;2022-09-13T06:58:36;9.70;;;6.70;;
50309;SDS011;36207;51.850;21.698;2022-09-13T07:01:13;9.30;;;6.70;;
50309;SDS011;36207;51.850;21.698;2022-09-13T07:04:02;8.90;;;6.50;;
50309;SDS011;36207;51.850;21.698;2022-09-13T07:06:32;9.20;;;6.50;;
50309;SDS011;36207;51.850;21.698;2022-09-13T07:09:00;9.30;;;6.60;;
50309;SDS011;36207;51.850;21.698;2022-09-13T07:11:29;8.80;;;6.30;;
50309;SDS011;36207;51.850;21.698;2022-09-13T07:13:57;8.90;;;6.20;;
50309;SDS011;36207;51.850;21.698;2022-09-13T07:16:25;7.80;;;5.90;;
50309;SDS011;36207;51.850;21.698;2022-09-13T07:18:54;8.70;;;6.20;;
50309;SDS011;36207;51.850;21.698;2022-09-13T07:21:22;8.90;;;6.30;;
50309;SDS011;36207;51.850;21.698;2022-09-13T07:23:50;10.90;;;6.00;;
50309;SDS011;36207;51.850;21.698;2022-09-13T07:26:17;9.20;;;6.40;;
50309;SDS011;36207;51.850;21.698;2022-09-13T07:28:45;8.30;;;5.40;;
50309;SDS011;36207;51.850;21.698;2022-09-13T07:31:14;6.10;;;4.50;;
50309;SDS011;36207;51.850;21.698;2022-09-13T07:33:46;6.60;;;4.80;;
50309;SDS011;36207;51.850;21.698;2022-09-13T07:36:17;8.40;;;4.80;;
50309;SDS011;36207;51.850;21.698;2022-09-13T07:38:43;7.30;;;4.90;;
50309;SDS011;36207;51.850;21.698;2022-09-13T07:41:10;6.50;;;4.70;;
50309;SDS011;36207;51.850;21.698;2022-09-13T07:43:38;6.80;;;4.90;;
50309;SDS011;36207;51.850;21.698;2022-09-13T07:46:06;8.10;;;5.20;;
50309;SDS011;36207;51.850;21.698;2022-09-13T07:48:34;9.60;;;5.70;;
50309;SDS011;36207;51.850;21.698;2022-09-13T07:51:20;8.40;;;6.30;;
50309;SDS011;36207;51.850;21.698;2022-09-13T07:53:49;9.00;;;6.10;;
50309;SDS011;36207;51.850;21.698;2022-09-13T07:56:20;9.00;;;6.30;;
50309;SDS011;36207;51.850;21.698;2022-09-13T07:58:49;8.70;;;6.40;;
50309;SDS011;36207;51.850;21.698;2022-09-13T08:01:24;9.10;;;6.60;;
50309;SDS011;36207;51.850;21.698;2022-09-13T08:04:11;8.70;;;6.70;;
50309;SDS011;36207;51.850;21.698;2022-09-13T08:06:41;12.30;;;6.70;;
50309;SDS011;36207;51.850;21.698;2022-09-13T08:09:11;9.50;;;6.10;;
50309;SDS011;36207;51.850;21.698;2022-09-13T08:11:40;8.80;;;6.30;;
50309;SDS011;36207;51.850;21.698;2022-09-13T08:14:11;8.40;;;6.20;;
50309;SDS011;36207;51.850;21.698;2022-09-13T08:16:41;8.40;;;6.20;;
50309;SDS011;36207;51.850;21.698;2022-09-13T08:19:10;9.90;;;5.70;;
50309;SDS011;36207;51.850;21.698;2022-09-13T08:21:38;10.00;;;6.30;;
50309;SDS011;36207;51.850;21.698;2022-09-13T08:24:10;8.30;;;5.50;;
50309;SDS011;36207;51.850;21.698;2022-09-13T08:26:39;8.30;;;5.50;;
50309;SDS011;36207;51.850;21.698;2022-09-13T08:29:05;9.00;;;6.10;;
50309;SDS011;36207;51.850;21.698;2022-09-13T08:31:32;9.10;;;6.30;;
50309;SDS011;36207;51.850;21.698;2022-09-13T08:33:59;8.30;;;5.70;;
50309;SDS011;36207;51.850;21.698;2022-09-13T08:36:26;8.40;;;5.60;;
50309;SDS011;36207;51.850;21.698;2022-09-13T08:38:54;13.20;;;5.90;;
50309;SDS011;36207;51.850;21.698;2022-09-13T08:46:52;6.60;;;5.00;;
50309;SDS011;36207;51.850;21.698;2022-09-13T08:49:30;7.60;;;5.50;;
50309;SDS011;36207;51.850;21.698;2022-09-13T08:52:45;8.10;;;5.20;;
50309;SDS011;36207;51.850;21.698;2022-09-13T08:54:53;8.70;;;5.10;;
50309;SDS011;36207;51.850;21.698;2022-09-13T08:57:41;7.60;;;4.80;;
50309;SDS011;36207;51.850;21.698;2022-09-13T09:00:22;7.50;;;5.20;;
50309;SDS011;36207;51.850;21.698;2022-09-13T09:05:57;7.50;;;4.70;;
50309;SDS011;36207;51.850;21.698;2022-09-13T09:08:27;9.40;;;4.60;;
50309;SDS011;36207;51.850;21.698;2022-09-13T09:11:01;7.30;;;4.30;;
50309;SDS011;36207;51.850;21.698;2022-09-13T09:13:36;8.60;;;4.10;;
50309;SDS011;36207;51.850;21.698;2022-09-13T09:16:23;6.60;;;4.20;;
50309;SDS011;36207;51.850;21.698;2022-09-13T09:18:51;5.80;;;4.10;;
50309;SDS011;36207;51.850;21.698;2022-09-13T09:21:20;6.00;;;4.30;;
50309;SDS011;36207;51.850;21.698;2022-09-13T09:23:50;9.40;;;4.30;;
50309;SDS011;36207;51.850;21.698;2022-09-13T09:26:22;7.70;;;4.40;;
50309;SDS011;36207;51.850;21.698;2022-09-13T09:29:04;7.50;;;4.70;;
50309;SDS011;36207;51.850;21.698;2022-09-13T09:34:21;9.50;;;5.10;;
50309;SDS011;36207;51.850;21.698;2022-09-13T09:39:28;7.60;;;4.40;;
50309;SDS011;36207;51.850;21.698;2022-09-13T09:42:06;5.60;;;4.10;;
50309;SDS011;36207;51.850;21.698;2022-09-13T09:44:39;6.30;;;4.40;;
50309;SDS011;36207;51.850;21.698;2022-09-13T09:47:21;5.80;;;4.20;;
50309;SDS011;36207;51.850;21.698;2022-09-13T09:49:58;5.80;;;4.00;;
50309;SDS011;36207;51.850;21.698;2022-09-13T09:55:27;6.80;;;4.20;;
50309;SDS011;36207;51.850;21.698;2022-09-13T09:58:04;5.00;;;3.80;;
50309;SDS011;36207;51.850;21.698;2022-09-13T10:00:37;5.10;;;3.90;;
50309;SDS011;36207;51.850;21.698;2022-09-13T10:03:16;7.50;;;3.70;;
50309;SDS011;36207;51.850;21.698;2022-09-13T10:05:45;5.30;;;3.70;;
50309;SDS011;36207;51.850;21.698;2022-09-13T10:08:24;5.30;;;3.30;;
50309;SDS011;36207;51.850;21.698;2022-09-13T10:10:55;5.10;;;3.60;;
50309;SDS011;36207;51.850;21.698;2022-09-13T10:13:25;6.70;;;3.40;;
50309;SDS011;36207;51.850;21.698;2022-09-13T10:18:21;6.10;;;3.30;;
50309;SDS011;36207;51.850;21.698;2022-09-13T10:21:04;5.70;;;3.10;;
50309;SDS011;36207;51.850;21.698;2022-09-13T10:23:46;6.40;;;3.10;;
50309;SDS011;36207;51.850;21.698;2022-09-13T10:26:22;3.20;;;2.90;;
50309;SDS011;36207;51.850;21.698;2022-09-13T10:31:17;4.40;;;2.90;;
50309;SDS011;36207;51.850;21.698;2022-09-13T10:42:03;4.40;;;3.20;;
50309;SDS011;36207;51.850;21.698;2022-09-13T10:44:45;9.20;;;3.40;;
50309;SDS011;36207;51.850;21.698;2022-09-13T10:47:36;7.50;;;3.60;;
50309;SDS011;36207;51.850;21.698;2022-09-13T10:50:26;5.90;;;3.20;;
50309;SDS011;36207;51.850;21.698;2022-09-13T10:57:48;7.00;;;3.60;;
50309;SDS011;36207;51.850;21.698;2022-09-13T11:00:19;6.60;;;3.40;;
50309;SDS011;36207;51.850;21.698;2022-09-13T11:05:42;3.70;;;3.10;;
50309;SDS011;36207;51.850;21.698;2022-09-13T11:20:06;4.20;;;3.20;;
50309;SDS011;36207;51.850;21.698;2022-09-13T11:29:17;4.40;;;3.30;;
50309;SDS011;36207;51.850;21.698;2022-09-13T11:45:17;4.60;;;3.20;;
50309;SDS011;36207;51.850;21.698;2022-09-13T11:50:37;4.00;;;3.10;;
50309;SDS011;36207;51.850;21.698;2022-09-13T11:53:55;4.90;;;3.10;;
50309;SDS011;36207;51.850;21.698;2022-09-13T11:56:44;4.30;;;3.40;;
50309;SDS011;36207;51.850;21.698;2022-09-13T11:59:20;7.70;;;3.80;;
50309;SDS011;36207;51.850;21.698;2022-09-13T12:01:58;5.30;;;3.30;;
50309;SDS011;36207;51.850;21.698;2022-09-13T12:04:36;4.20;;;3.50;;
50309;SDS011;36207;51.850;21.698;2022-09-13T12:07:30;5.30;;;3.70;;
50309;SDS011;36207;51.850;21.698;2022-09-13T12:10:05;5.10;;;3.50;;
50309;SDS011;36207;51.850;21.698;2022-09-13T12:12:40;6.50;;;3.80;;
50309;SDS011;36207;51.850;21.698;2022-09-13T12:15:16;6.50;;;3.90;;
50309;SDS011;36207;51.850;21.698;2022-09-13T12:17:52;6.00;;;3.90;;
50309;SDS011;36207;51.850;21.698;2022-09-13T12:23:38;5.80;;;3.80;;
50309;SDS011;36207;51.850;21.698;2022-09-13T12:26:20;6.10;;;3.90;;
50309;SDS011;36207;51.850;21.698;2022-09-13T12:28:55;6.70;;;4.10;;
50309;SDS011;36207;51.850;21.698;2022-09-13T12:31:26;5.40;;;4.20;;
50309;SDS011;36207;51.850;21.698;2022-09-13T12:33:56;7.40;;;3.90;;
50309;SDS011;36207;51.850;21.698;2022-09-13T12:52:52;5.50;;;3.60;;
50309;SDS011;36207;51.850;21.698;2022-09-13T13:01:20;4.00;;;3.20;;
50309;SDS011;36207;51.850;21.698;2022-09-13T13:03:53;6.40;;;3.50;;
50309;SDS011;36207;51.850;21.698;2022-09-13T13:09:22;4.70;;;3.10;;
50309;SDS011;36207;51.850;21.698;2022-09-13T13:11:53;4.90;;;3.40;;
50309;SDS011;36207;51.850;21.698;2022-09-13T13:14:27;4.20;;;3.30;;
50309;SDS011;36207;51.850;21.698;2022-09-13T13:36:49;4.60;;;3.10;;
50309;SDS011;36207;51.850;21.698;2022-09-13T13:46:52;4.90;;;3.10;;
50309;SDS011;36207;51.850;21.698;2022-09-13T13:57:23;6.10;;;3.10;;
50309;SDS011;36207;51.850;21.698;2022-09-13T14:00:16;6.30;;;3.60;;
50309;SDS011;36207;51.850;21.698;2022-09-13T14:21:27;7.50;;;3.60;;
50309;SDS011;36207;51.850;21.698;2022-09-13T14:26:56;6.10;;;3.50;;
50309;SDS011;36207;51.850;21.698;2022-09-13T14:29:24;4.10;;;3.40;;
50309;SDS011;36207;51.850;21.698;2022-09-13T14:31:52;4.80;;;3.50;;
50309;SDS011;36207;51.850;21.698;2022-09-13T14:34:26;4.90;;;3.60;;
50309;SDS011;36207;51.850;21.698;2022-09-13T14:36:59;4.90;;;3.50;;
50309;SDS011;36207;51.850;21.698;2022-09-13T14:39:27;6.80;;;3.60;;
50309;SDS011;36207;51.850;21.698;2022-09-13T14:44:36;4.30;;;3.40;;
50309;SDS011;36207;51.850;21.698;2022-09-13T14:47:14;5.60;;;3.80;;
50309;SDS011;36207;51.850;21.698;2022-09-13T14:49:54;5.60;;;3.60;;
50309;SDS011;36207;51.850;21.698;2022-09-13T14:52:35;6.40;;;3.80;;
50309;SDS011;36207;51.850;21.698;2022-09-13T14:55:07;7.00;;;4.10;;
50309;SDS011;36207;51.850;21.698;2022-09-13T14:57:40;8.10;;;5.20;;
50309;SDS011;36207;51.850;21.698;2022-09-13T15:00:16;7.70;;;4.80;;
50309;SDS011;36207;51.850;21.698;2022-09-13T15:02:49;17.90;;;5.10;;
50309;SDS011;36207;51.850;21.698;2022-09-13T15:05:17;9.30;;;4.90;;
50309;SDS011;36207;51.850;21.698;2022-09-13T15:07:52;7.50;;;4.20;;
50309;SDS011;36207;51.850;21.698;2022-09-13T15:10:20;9.30;;;4.60;;
50309;SDS011;36207;51.850;21.698;2022-09-13T15:15:38;8.60;;;5.30;;
50309;SDS011;36207;51.850;21.698;2022-09-13T15:23:40;8.00;;;4.70;;
50309;SDS011;36207;51.850;21.698;2022-09-13T15:26:23;9.50;;;4.90;;
50309;SDS011;36207;51.850;21.698;2022-09-13T15:28:51;11.80;;;5.70;;
50309;SDS011;36207;51.850;21.698;2022-09-13T15:31:23;12.00;;;5.80;;
50309;SDS011;36207;51.850;21.698;2022-09-13T15:39:47;7.50;;;4.60;;
50309;SDS011;36207;51.850;21.698;2022-09-13T15:42:15;6.40;;;5.00;;
50309;SDS011;36207;51.850;21.698;2022-09-13T15:44:42;10.60;;;5.50;;
50309;SDS011;36207;51.850;21.698;2022-09-13T15:47:10;12.60;;;8.40;;
50309;SDS011;36207;51.850;21.698;2022-09-13T15:49:40;11.20;;;6.30;;
50309;SDS011;36207;51.850;21.698;2022-09-13T15:52:14;12.60;;;5.70;;
50309;SDS011;36207;51.850;21.698;2022-09-13T15:54:42;11.80;;;5.20;;
50309;SDS011;36207;51.850;21.698;2022-09-13T15:57:20;12.50;;;6.00;;
50309;SDS011;36207;51.850;21.698;2022-09-13T15:59:49;10.40;;;6.40;;
50309;SDS011;36207;51.850;21.698;2022-09-13T16:02:24;9.90;;;5.90;;
50309;SDS011;36207;51.850;21.698;2022-09-13T16:04:53;11.30;;;6.10;;
50309;SDS011;36207;51.850;21.698;2022-09-13T16:07:20;9.50;;;6.10;;
50309;SDS011;36207;51.850;21.698;2022-09-13T16:09:48;10.90;;;6.40;;
50309;SDS011;36207;51.850;21.698;2022-09-13T16:12:14;9.30;;;5.90;;
50309;SDS011;36207;51.850;21.698;2022-09-13T16:14:43;7.30;;;5.10;;
50309;SDS011;36207;51.850;21.698;2022-09-13T16:17:20;6.20;;;5.20;;
50309;SDS011;36207;51.850;21.698;2022-09-13T16:19:49;9.30;;;6.10;;
50309;SDS011;36207;51.850;21.698;2022-09-13T16:22:15;7.70;;;5.40;;
50309;SDS011;36207;51.850;21.698;2022-09-13T16:24:42;10.30;;;5.90;;
50309;SDS011;36207;51.850;21.698;2022-09-13T16:27:09;14.40;;;9.00;;
50309;SDS011;36207;51.850;21.698;2022-09-13T16:29:37;13.60;;;9.10;;
50309;SDS011;36207;51.850;21.698;2022-09-13T16:32:03;13.60;;;8.70;;
50309;SDS011;36207;51.850;21.698;2022-09-13T16:34:30;10.90;;;6.00;;
50309;SDS011;36207;51.850;21.698;2022-09-13T16:36:56;7.80;;;5.60;;
50309;SDS011;36207;51.850;21.698;2022-09-13T16:39:22;9.00;;;5.70;;
50309;SDS011;36207;51.850;21.698;2022-09-13T16:41:49;13.00;;;6.60;;
50309;SDS011;36207;51.850;21.698;2022-09-13T16:44:15;9.30;;;6.30;;
50309;SDS011;36207;51.850;21.698;2022-09-13T16:46:43;10.50;;;6.60;;
50309;SDS011;36207;51.850;21.698;2022-09-13T16:49:10;11.30;;;6.90;;
50309;SDS011;36207;51.850;21.698;2022-09-13T16:51:36;9.80;;;6.60;;
50309;SDS011;36207;51.850;21.698;2022-09-13T16:54:04;12.70;;;7.20;;
50309;SDS011;36207;51.850;21.698;2022-09-13T16:56:31;12.90;;;9.20;;
50309;SDS011;36207;51.850;21.698;2022-09-13T16:58:57;11.50;;;8.40;;
50309;SDS011;36207;51.850;21.698;2022-09-13T17:01:24;12.10;;;8.20;;
50309;SDS011;36207;51.850;21.698;2022-09-13T17:03:52;11.90;;;8.30;;
50309;SDS011;36207;51.850;21.698;2022-09-13T17:06:19;14.20;;;8.70;;
50309;SDS011;36207;51.850;21.698;2022-09-13T17:08:48;11.50;;;7.90;;
50309;SDS011;36207;51.850;21.698;2022-09-13T17:11:18;13.50;;;7.80;;
50309;SDS011;36207;51.850;21.698;2022-09-13T17:13:46;10.80;;;7.40;;
50309;SDS011;36207;51.850;21.698;2022-09-13T17:18:52;9.90;;;6.60;;
50309;SDS011;36207;51.850;21.698;2022-09-13T17:21:18;12.50;;;6.80;;
50309;SDS011;36207;51.850;21.698;2022-09-13T17:23:46;12.20;;;6.90;;
50309;SDS011;36207;51.850;21.698;2022-09-13T17:26:12;9.20;;;6.60;;
50309;SDS011;36207;51.850;21.698;2022-09-13T17:28:38;9.70;;;7.10;;
50309;SDS011;36207;51.850;21.698;2022-09-13T17:31:05;10.10;;;7.00;;
50309;SDS011;36207;51.850;21.698;2022-09-13T17:33:31;11.70;;;8.00;;
50309;SDS011;36207;51.850;21.698;2022-09-13T17:36:01;15.40;;;9.70;;
50309;SDS011;36207;51.850;21.698;2022-09-13T17:38:29;13.40;;;8.60;;
50309;SDS011;36207;51.850;21.698;2022-09-13T17:41:03;15.20;;;9.90;;
50309;SDS011;36207;51.850;21.698;2022-09-13T17:43:38;10.50;;;7.50;;
50309;SDS011;36207;51.850;21.698;2022-09-13T17:46:10;14.90;;;8.10;;
50309;SDS011;36207;51.850;21.698;2022-09-13T17:48:41;12.50;;;8.10;;
50309;SDS011;36207;51.850;21.698;2022-09-13T17:51:18;10.10;;;7.70;;
50309;SDS011;36207;51.850;21.698;2022-09-13T17:53:48;11.30;;;7.00;;
50309;SDS011;36207;51.850;21.698;2022-09-13T17:56:17;11.30;;;7.50;;
50309;SDS011;36207;51.850;21.698;2022-09-13T17:58:56;13.20;;;8.40;;
50309;SDS011;36207;51.850;21.698;2022-09-13T18:01:46;13.90;;;8.70;;
50309;SDS011;36207;51.850;21.698;2022-09-13T18:04:15;11.80;;;8.40;;
50309;SDS011;36207;51.850;21.698;2022-09-13T18:06:43;11.80;;;7.60;;
50309;SDS011;36207;51.850;21.698;2022-09-13T18:09:11;10.70;;;7.60;;
50309;SDS011;36207;51.850;21.698;2022-09-13T18:11:39;13.10;;;8.00;;
50309;SDS011;36207;51.850;21.698;2022-09-13T18:14:06;13.10;;;8.20;;
50309;SDS011;36207;51.850;21.698;2022-09-13T18:16:36;21.50;;;7.90;;
50309;SDS011;36207;51.850;21.698;2022-09-13T18:19:02;15.40;;;9.30;;
50309;SDS011;36207;51.850;21.698;2022-09-13T18:21:29;9.90;;;7.40;;
50309;SDS011;36207;51.850;21.698;2022-09-13T18:23:57;11.10;;;7.30;;
50309;SDS011;36207;51.850;21.698;2022-09-13T18:26:26;11.30;;;7.90;;
50309;SDS011;36207;51.850;21.698;2022-09-13T18:29:00;12.20;;;6.80;;
50309;SDS011;36207;51.850;21.698;2022-09-13T18:31:29;12.00;;;7.40;;
50309;SDS011;36207;51.850;21.698;2022-09-13T18:33:58;12.40;;;7.90;;